Seastreak Highlands — WDE4031 — position and weather

sailwx.info

Track history (hours):
 
Tides and Currents Weather Stations Pressure Air Temp Water Temp Dewpoint Dewpoint Depression Visibility Wind Speed Wind Dir Waves Ship Positions

Seastreak Highlands

Owner: Seastreak llc, atlantic highlands, NJ. More information available from US FCC via Universal Licensing System and Coast Guard Vessel Documentation Center.

Last reported at 2017-Oct-22 13:58 UTC. Time now 2017-Oct-22 14:02 UTC.
Position N 40°42' W 074°00'.

Length 44 m.

Type: High speed craft. MMSI: 367347670.

Date/timePositionNaut miles runAvg speedWind from/ knotsBaromVisibWave heightAir tempDewpointWater temp
2017-Oct-22 13:58N 40°42' W 074°00'510.3
2017-Oct-22 13:30N 40°38' W 074°03'1325.7
2017-Oct-22 12:59N 40°25' W 073°60'0 0.0
2017-Oct-22 12:30N 40°25' W 073°60'2 3.8
2017-Oct-22 12:00N 40°25' W 074°02'0 0.0
2017-Oct-22 11:30N 40°25' W 074°02'0 0.0
2017-Oct-22 11:00N 40°25' W 074°02'0 0.0
2017-Oct-22 01:34N 40°25' W 074°02'0 0.0
2017-Oct-22 01:29N 40°25' W 074°02'2 3.9
2017-Oct-22 01:01N 40°25' W 073°60'0 0.1
2017-Oct-22 00:30N 40°25' W 073°60'0 0.2
2017-Oct-22 00:00N 40°25' W 073°60'1 2.1
2017-Oct-21 23:23N 40°26' W 074°01'922.9
2017-Oct-21 22:58N 40°35' W 074°03'715.4
2017-Oct-21 22:31N 40°42' W 074°00'1223.0
2017-Oct-21 22:00N 40°53' W 073°56'1 0.2
2017-Oct-21 14:37N 40°52' W 073°56'1016.6
2017-Oct-21 14:00N 40°42' W 074°00'4 8.7
2017-Oct-21 13:30N 40°38' W 074°03'1428.4
2017-Oct-21 13:00N 40°25' W 073°60'0 0.1
2017-Oct-21 12:30N 40°25' W 073°60'0 0.1
2017-Oct-21 12:00N 40°25' W 073°60'2 0.1
2017-Oct-20 00:27N 40°25' W 074°02'2 3.7
2017-Oct-19 23:57N 40°25' W 073°60'1 1.9
2017-Oct-19 23:30N 40°25' W 074°00'1121.8
2017-Oct-19 23:00N 40°36' W 074°03'918.5
2017-Oct-19 22:30N 40°45' W 073°58'611.7
2017-Oct-19 22:01N 40°39' W 074°02'1425.7
2017-Oct-19 21:28N 40°25' W 074°01'918.9
2017-Oct-19 21:00N 40°34' W 074°02'918.2
2017-Oct-19 20:31N 40°43' W 073°59'2 4.3
2017-Oct-19 20:00N 40°45' W 073°58'0 0.0
2017-Oct-19 19:30N 40°45' W 073°58'0 0.0
2017-Oct-19 19:00N 40°45' W 073°58'0 0.0
2017-Oct-19 18:30N 40°45' W 073°58'0 0.0
2017-Oct-19 18:00N 40°45' W 073°58'0 0.0
2017-Oct-19 17:30N 40°45' W 073°58'0 0.0
2017-Oct-19 17:00N 40°45' W 073°58'0 0.0
2017-Oct-19 16:30N 40°45' W 073°58'0 0.0
2017-Oct-19 16:00N 40°45' W 073°58'0 0.0
2017-Oct-19 15:30N 40°45' W 073°58'0 0.0
2017-Oct-19 15:00N 40°45' W 073°58'0 0.0
2017-Oct-19 14:29N 40°45' W 073°58'0 0.0
2017-Oct-19 13:59N 40°45' W 073°58'0 0.0
2017-Oct-19 13:30N 40°45' W 073°58'0 0.1
2017-Oct-19 13:00N 40°45' W 073°58'612.0
2017-Oct-19 12:31N 40°39' W 074°02'1525.0
2017-Oct-19 11:55N 40°25' W 073°60'512.7
2017-Oct-19 11:30N 40°30' W 074°02'1530.4
2017-Oct-19 11:00N 40°45' W 073°58'611.6
2017-Oct-19 10:31N 40°39' W 074°01'1528.9
2017-Oct-19 10:00N 40°25' W 073°60'2 3.4
2017-Oct-19 09:27N 40°25' W 074°02'0 0.0
2017-Oct-19 00:38N 40°25' W 074°02'1 6.0
2017-Oct-19 00:30N 40°26' W 074°01'1 2.6
2017-Oct-18 23:57N 40°25' W 073°60'0 0.0
2017-Oct-18 23:27N 40°25' W 073°60'1226.5
2017-Oct-18 23:00N 40°36' W 074°03'918.4
2017-Oct-18 22:30N 40°45' W 073°58'816.9
2017-Oct-18 22:00N 40°37' W 074°03'1222.5
2017-Oct-18 21:29N 40°25' W 074°01'917.5
2017-Oct-18 20:58N 40°34' W 074°02'918.5
2017-Oct-18 20:31N 40°42' W 073°59'3 5.5
2017-Oct-18 20:00N 40°45' W 073°58'1 0.2
2017-Oct-18 13:07N 40°46' W 073°57'217.7
2017-Oct-18 13:00N 40°45' W 073°58'713.7
2017-Oct-18 12:31N 40°39' W 074°02'1428.2
2017-Oct-18 12:00N 40°25' W 073°60'612.9
2017-Oct-18 11:30N 40°31' W 074°02'1427.5
2017-Oct-18 11:00N 40°45' W 073°58'713.4
2017-Oct-18 10:31N 40°39' W 074°02'1428.1
2017-Oct-18 10:00N 40°25' W 073°60'2 3.6
2017-Oct-18 09:30N 40°25' W 074°02'0 0.0
2017-Oct-18 00:43N 40°25' W 074°02'2 7.6
2017-Oct-18 00:30N 40°25' W 073°60'0 0.4
2017-Oct-17 23:51N 40°25' W 073°60'0 0.1
2017-Oct-17 23:28N 40°25' W 073°60'1327.5
2017-Oct-17 23:00N 40°37' W 074°03'816.7
2017-Oct-17 22:30N 40°45' W 073°58'1020.5
2017-Oct-17 22:00N 40°35' W 074°02'919.0
2017-Oct-17 21:30N 40°25' W 074°00'918.2
2017-Oct-17 21:00N 40°34' W 074°02'918.0
2017-Oct-17 20:30N 40°43' W 073°59'2 4.4
2017-Oct-17 20:00N 40°45' W 073°58'2 0.3
2017-Oct-17 13:13N 40°47' W 073°56'211.1
2017-Oct-17 13:00N 40°45' W 073°58'714.8
2017-Oct-17 12:30N 40°38' W 074°03'1417.2
2017-Oct-17 11:43N 40°25' W 073°60'930.8
2017-Oct-17 11:25N 40°33' W 074°02'1228.1
2017-Oct-17 11:00N 40°45' W 073°58'612.9
2017-Oct-17 10:31N 40°39' W 074°02'1425.3
2017-Oct-17 09:56N 40°25' W 073°60'2 4.0
2017-Oct-17 09:29N 40°25' W 074°02'0 0.0
2017-Oct-16 00:04N 40°25' W 074°02'0 0.0
2017-Oct-16 00:00N 40°25' W 074°02'2 2.0
2017-Oct-15 23:05N 40°25' W 073°60'222.3
2017-Oct-15 22:59N 40°27' W 074°01'1531.6
2017-Oct-15 22:31N 40°41' W 074°02'917.2
2017-Oct-15 22:00N 40°50' W 073°58'5 0.7
2017-Oct-15 14:40N 40°55' W 073°55'1319.8
2017-Oct-15 14:01N 40°42' W 074°00'4 8.6
2017-Oct-15 13:31N 40°39' W 074°03'14 9.9
2017-Oct-15 12:04N 40°25' W 073°60'114.0
2017-Oct-15 11:59N 40°25' W 074°01'1 1.9
2017-Oct-15 11:29N 40°25' W 074°02'0 0.0
2017-Oct-15 00:25N 40°25' W 074°02'2 1.7
2017-Oct-14 23:16N 40°25' W 073°60'0 0.0
2017-Oct-14 22:59N 40°25' W 073°60'1430.3
2017-Oct-14 22:31N 40°39' W 074°02'918.9
2017-Oct-14 22:01N 40°48' W 073°59'7 0.9
2017-Oct-14 14:36N 40°54' W 073°55'330.2
2017-Oct-14 14:30N 40°51' W 073°57'918.8
2017-Oct-14 14:00N 40°42' W 074°00'3 6.2
2017-Oct-14 13:30N 40°39' W 074°02'14 8.4
2017-Oct-14 11:49N 40°25' W 074°02'0 0.0
2017-Oct-13 20:04N 40°25' W 074°02'2 1.0
2017-Oct-13 18:26N 40°25' W 074°00'921.0
2017-Oct-13 17:59N 40°34' W 074°02'918.5
2017-Oct-13 17:30N 40°42' W 073°60'0 0.8
2017-Oct-13 17:00N 40°42' W 073°59'1428.4
2017-Oct-13 16:30N 40°28' W 074°01'4 5.5
2017-Oct-13 15:49N 40°32' W 074°02'1030.3
2017-Oct-13 15:30N 40°41' W 074°01'3 5.3
2017-Oct-13 15:00N 40°43' W 073°58'712.7
2017-Oct-13 14:30N 40°38' W 074°03'6 5.1
2017-Oct-13 13:16N 40°32' W 074°02'931.7
2017-Oct-13 13:00N 40°40' W 074°01'5 9.7
2017-Oct-13 12:30N 40°45' W 073°58'612.4
2017-Oct-13 12:00N 40°39' W 074°02'1428.1
2017-Oct-13 11:30N 40°25' W 074°02'0 0.0
2017-Oct-13 11:00N 40°25' W 074°02'0 0.0
2017-Oct-13 02:58N 40°25' W 074°02'3 5.2
2017-Oct-13 02:29N 40°28' W 074°02'1530.1
2017-Oct-13 02:00N 40°42' W 074°00'3 5.7
2017-Oct-13 01:29N 40°45' W 073°58'613.3
2017-Oct-13 01:00N 40°39' W 074°02'6 2.5
2017-Oct-12 22:35N 40°33' W 074°02'333.4
2017-Oct-12 22:29N 40°36' W 074°03'918.7
2017-Oct-12 22:00N 40°45' W 073°58'816.9
2017-Oct-12 21:30N 40°37' W 074°03'1223.3
2017-Oct-12 21:00N 40°25' W 074°00'1020.7
2017-Oct-12 20:30N 40°35' W 074°03'714.8
2017-Oct-12 20:00N 40°42' W 073°59'612.2
2017-Oct-12 19:30N 40°37' W 074°03'1212.6
2017-Oct-12 18:30N 40°25' W 073°60'918.0
2017-Oct-12 17:59N 40°34' W 074°02'919.0
2017-Oct-12 17:30N 40°42' W 073°59'0 0.2
2017-Oct-12 17:00N 40°42' W 073°59'1529.7
2017-Oct-12 16:29N 40°27' W 074°01'0 0.5
2017-Oct-12 15:57N 40°27' W 074°01'1430.8
2017-Oct-12 15:30N 40°41' W 074°01'4 7.7
2017-Oct-12 15:00N 40°44' W 073°58'815.8
2017-Oct-12 14:30N 40°37' W 074°03'  
Track history (hours):
 
Tides and Currents Weather Stations Pressure Air Temp Water Temp Dewpoint Dewpoint Depression Visibility Wind Speed Wind Dir Waves Ship Positions

Seastreak Highlands

Owner: Seastreak llc, atlantic highlands, NJ. More information available from US FCC via Universal Licensing System and Coast Guard Vessel Documentation Center.

Last reported at 2017-Oct-22 13:58 UTC. Time now 2017-Oct-22 14:02 UTC.
Position N 40°42' W 074°00'.

Length 44 m.

Type: High speed craft. MMSI: 367347670.

Date/timePositionNaut miles runAvg speedWind from/ knotsBaromVisibWave heightAir tempDewpointWater temp
2017-Oct-22 13:58N 40°42' W 074°00'510.3
2017-Oct-22 13:30N 40°38' W 074°03'1325.7
2017-Oct-22 12:59N 40°25' W 073°60'0 0.0
2017-Oct-22 12:30N 40°25' W 073°60'2 3.8
2017-Oct-22 12:00N 40°25' W 074°02'0 0.0
2017-Oct-22 11:30N 40°25' W 074°02'0 0.0
2017-Oct-22 11:00N 40°25' W 074°02'0 0.0
2017-Oct-22 01:34N 40°25' W 074°02'0 0.0
2017-Oct-22 01:29N 40°25' W 074°02'2 3.9
2017-Oct-22 01:01N 40°25' W 073°60'0 0.1
2017-Oct-22 00:30N 40°25' W 073°60'0 0.2
2017-Oct-22 00:00N 40°25' W 073°60'1 2.1
2017-Oct-21 23:23N 40°26' W 074°01'922.9
2017-Oct-21 22:58N 40°35' W 074°03'715.4
2017-Oct-21 22:31N 40°42' W 074°00'1223.0
2017-Oct-21 22:00N 40°53' W 073°56'1 0.2
2017-Oct-21 14:37N 40°52' W 073°56'1016.6
2017-Oct-21 14:00N 40°42' W 074°00'4 8.7
2017-Oct-21 13:30N 40°38' W 074°03'1428.4
2017-Oct-21 13:00N 40°25' W 073°60'0 0.1
2017-Oct-21 12:30N 40°25' W 073°60'0 0.1
2017-Oct-21 12:00N 40°25' W 073°60'2 0.1
2017-Oct-20 00:27N 40°25' W 074°02'2 3.7
2017-Oct-19 23:57N 40°25' W 073°60'1 1.9
2017-Oct-19 23:30N 40°25' W 074°00'1121.8
2017-Oct-19 23:00N 40°36' W 074°03'918.5
2017-Oct-19 22:30N 40°45' W 073°58'611.7
2017-Oct-19 22:01N 40°39' W 074°02'1425.7
2017-Oct-19 21:28N 40°25' W 074°01'918.9
2017-Oct-19 21:00N 40°34' W 074°02'918.2
2017-Oct-19 20:31N 40°43' W 073°59'2 4.3
2017-Oct-19 20:00N 40°45' W 073°58'0 0.0
2017-Oct-19 19:30N 40°45' W 073°58'0 0.0
2017-Oct-19 19:00N 40°45' W 073°58'0 0.0
2017-Oct-19 18:30N 40°45' W 073°58'0 0.0
2017-Oct-19 18:00N 40°45' W 073°58'0 0.0
2017-Oct-19 17:30N 40°45' W 073°58'0 0.0
2017-Oct-19 17:00N 40°45' W 073°58'0 0.0
2017-Oct-19 16:30N 40°45' W 073°58'0 0.0
2017-Oct-19 16:00N 40°45' W 073°58'0 0.0
2017-Oct-19 15:30N 40°45' W 073°58'0 0.0
2017-Oct-19 15:00N 40°45' W 073°58'0 0.0
2017-Oct-19 14:29N 40°45' W 073°58'0 0.0
2017-Oct-19 13:59N 40°45' W 073°58'0 0.0
2017-Oct-19 13:30N 40°45' W 073°58'0 0.1
2017-Oct-19 13:00N 40°45' W 073°58'612.0
2017-Oct-19 12:31N 40°39' W 074°02'1525.0
2017-Oct-19 11:55N 40°25' W 073°60'512.7
2017-Oct-19 11:30N 40°30' W 074°02'1530.4
2017-Oct-19 11:00N 40°45' W 073°58'611.6
2017-Oct-19 10:31N 40°39' W 074°01'1528.9
2017-Oct-19 10:00N 40°25' W 073°60'2 3.4
2017-Oct-19 09:27N 40°25' W 074°02'0 0.0
2017-Oct-19 00:38N 40°25' W 074°02'1 6.0
2017-Oct-19 00:30N 40°26' W 074°01'1 2.6
2017-Oct-18 23:57N 40°25' W 073°60'0 0.0
2017-Oct-18 23:27N 40°25' W 073°60'1226.5
2017-Oct-18 23:00N 40°36' W 074°03'918.4
2017-Oct-18 22:30N 40°45' W 073°58'816.9
2017-Oct-18 22:00N 40°37' W 074°03'1222.5
2017-Oct-18 21:29N 40°25' W 074°01'917.5
2017-Oct-18 20:58N 40°34' W 074°02'918.5
2017-Oct-18 20:31N 40°42' W 073°59'3 5.5
2017-Oct-18 20:00N 40°45' W 073°58'1 0.2
2017-Oct-18 13:07N 40°46' W 073°57'217.7
2017-Oct-18 13:00N 40°45' W 073°58'713.7
2017-Oct-18 12:31N 40°39' W 074°02'1428.2
2017-Oct-18 12:00N 40°25' W 073°60'612.9
2017-Oct-18 11:30N 40°31' W 074°02'1427.5
2017-Oct-18 11:00N 40°45' W 073°58'713.4
2017-Oct-18 10:31N 40°39' W 074°02'1428.1
2017-Oct-18 10:00N 40°25' W 073°60'2 3.6
2017-Oct-18 09:30N 40°25' W 074°02'0 0.0
2017-Oct-18 00:43N 40°25' W 074°02'2 7.6
2017-Oct-18 00:30N 40°25' W 073°60'0 0.4
2017-Oct-17 23:51N 40°25' W 073°60'0 0.1
2017-Oct-17 23:28N 40°25' W 073°60'1327.5
2017-Oct-17 23:00N 40°37' W 074°03'816.7
2017-Oct-17 22:30N 40°45' W 073°58'1020.5
2017-Oct-17 22:00N 40°35' W 074°02'919.0
2017-Oct-17 21:30N 40°25' W 074°00'918.2
2017-Oct-17 21:00N 40°34' W 074°02'918.0
2017-Oct-17 20:30N 40°43' W 073°59'2 4.4
2017-Oct-17 20:00N 40°45' W 073°58'2 0.3
2017-Oct-17 13:13N 40°47' W 073°56'211.1
2017-Oct-17 13:00N 40°45' W 073°58'714.8
2017-Oct-17 12:30N 40°38' W 074°03'1417.2
2017-Oct-17 11:43N 40°25' W 073°60'930.8
2017-Oct-17 11:25N 40°33' W 074°02'1228.1
2017-Oct-17 11:00N 40°45' W 073°58'612.9
2017-Oct-17 10:31N 40°39' W 074°02'1425.3
2017-Oct-17 09:56N 40°25' W 073°60'2 4.0
2017-Oct-17 09:29N 40°25' W 074°02'0 0.0
2017-Oct-16 00:04N 40°25' W 074°02'0 0.0
2017-Oct-16 00:00N 40°25' W 074°02'2 2.0
2017-Oct-15 23:05N 40°25' W 073°60'222.3
2017-Oct-15 22:59N 40°27' W 074°01'1531.6
2017-Oct-15 22:31N 40°41' W 074°02'917.2
2017-Oct-15 22:00N 40°50' W 073°58'5 0.7
2017-Oct-15 14:40N 40°55' W 073°55'1319.8
2017-Oct-15 14:01N 40°42' W 074°00'4 8.6
2017-Oct-15 13:31N 40°39' W 074°03'14 9.9
2017-Oct-15 12:04N 40°25' W 073°60'114.0
2017-Oct-15 11:59N 40°25' W 074°01'1 1.9
2017-Oct-15 11:29N 40°25' W 074°02'0 0.0
2017-Oct-15 00:25N 40°25' W 074°02'2 1.7
2017-Oct-14 23:16N 40°25' W 073°60'0 0.0
2017-Oct-14 22:59N 40°25' W 073°60'1430.3
2017-Oct-14 22:31N 40°39' W 074°02'918.9
2017-Oct-14 22:01N 40°48' W 073°59'7 0.9
2017-Oct-14 14:36N 40°54' W 073°55'330.2
2017-Oct-14 14:30N 40°51' W 073°57'918.8
2017-Oct-14 14:00N 40°42' W 074°00'3 6.2
2017-Oct-14 13:30N 40°39' W 074°02'14 8.4
2017-Oct-14 11:49N 40°25' W 074°02'0 0.0
2017-Oct-13 20:04N 40°25' W 074°02'2 1.0
2017-Oct-13 18:26N 40°25' W 074°00'921.0
2017-Oct-13 17:59N 40°34' W 074°02'918.5
2017-Oct-13 17:30N 40°42' W 073°60'0 0.8
2017-Oct-13 17:00N 40°42' W 073°59'1428.4
2017-Oct-13 16:30N 40°28' W 074°01'4 5.5
2017-Oct-13 15:49N 40°32' W 074°02'1030.3
2017-Oct-13 15:30N 40°41' W 074°01'3 5.3
2017-Oct-13 15:00N 40°43' W 073°58'712.7
2017-Oct-13 14:30N 40°38' W 074°03'6 5.1
2017-Oct-13 13:16N 40°32' W 074°02'931.7
2017-Oct-13 13:00N 40°40' W 074°01'5 9.7
2017-Oct-13 12:30N 40°45' W 073°58'612.4
2017-Oct-13 12:00N 40°39' W 074°02'1428.1
2017-Oct-13 11:30N 40°25' W 074°02'0 0.0
2017-Oct-13 11:00N 40°25' W 074°02'0 0.0
2017-Oct-13 02:58N 40°25' W 074°02'3 5.2
2017-Oct-13 02:29N 40°28' W 074°02'1530.1
2017-Oct-13 02:00N 40°42' W 074°00'3 5.7
2017-Oct-13 01:29N 40°45' W 073°58'613.3
2017-Oct-13 01:00N 40°39' W 074°02'6 2.5
2017-Oct-12 22:35N 40°33' W 074°02'333.4
2017-Oct-12 22:29N 40°36' W 074°03'918.7
2017-Oct-12 22:00N 40°45' W 073°58'816.9
2017-Oct-12 21:30N 40°37' W 074°03'1223.3
2017-Oct-12 21:00N 40°25' W 074°00'1020.7
2017-Oct-12 20:30N 40°35' W 074°03'714.8
2017-Oct-12 20:00N 40°42' W 073°59'612.2
2017-Oct-12 19:30N 40°37' W 074°03'1212.6
2017-Oct-12 18:30N 40°25' W 073°60'918.0
2017-Oct-12 17:59N 40°34' W 074°02'919.0
2017-Oct-12 17:30N 40°42' W 073°59'0 0.2
2017-Oct-12 17:00N 40°42' W 073°59'1529.7
2017-Oct-12 16:29N 40°27' W 074°01'0 0.5
2017-Oct-12 15:57N 40°27' W 074°01'1430.8
2017-Oct-12 15:30N 40°41' W 074°01'4 7.7
2017-Oct-12 15:00N 40°44' W 073°58'815.8
2017-Oct-12 14:30N 40°37' W 074°03'  

Dump ship's entire track history